Terminal Aerodrome Forecast
Issued by NWS

Home | Current Version | Previous Version | Text Only | Print | Product List | Glossary Off
Versions: 1 2 3 4 5 6 7 8 9 10 11 12

158
FTUS42 KMHX 291121
TAFISO
TAF
KISO 291121Z 2912/3012 27007KT P6SM SCT250
     FM291900 24007KT P6SM SCT050
     FM300300 21005KT P6SM BKN050
     FM300600 19003KT 5SM SHRA SCT025 BKN050
      AMD LTD TO CLD VIS AND WIND=

USA.gov is the U.S. government's official web portal to all federal, state and local government web resources and services.